sensor_id;sensor_type;location;lat;lon;timestamp;P1;durP1;ratioP1;P2;durP2;ratioP2
31872;SDS011;22407;42.820;23.374;2023-06-22T00:00:19;14.80;;;7.40;;
31872;SDS011;22407;42.820;23.374;2023-06-22T00:02:45;13.63;;;7.37;;
31872;SDS011;22407;42.820;23.374;2023-06-22T00:05:10;14.80;;;7.97;;
31872;SDS011;22407;42.820;23.374;2023-06-22T00:07:35;15.00;;;8.10;;
31872;SDS011;22407;42.820;23.374;2023-06-22T00:10:01;14.80;;;7.90;;
31872;SDS011;22407;42.820;23.374;2023-06-22T00:12:26;16.27;;;7.90;;
31872;SDS011;22407;42.820;23.374;2023-06-22T00:14:51;16.43;;;8.27;;
31872;SDS011;22407;42.820;23.374;2023-06-22T00:17:16;14.93;;;8.30;;
31872;SDS011;22407;42.820;23.374;2023-06-22T00:19:41;14.90;;;8.30;;
31872;SDS011;22407;42.820;23.374;2023-06-22T00:22:07;15.13;;;8.20;;
31872;SDS011;22407;42.820;23.374;2023-06-22T00:24:33;14.23;;;7.57;;
31872;SDS011;22407;42.820;23.374;2023-06-22T00:26:58;15.60;;;8.80;;
31872;SDS011;22407;42.820;23.374;2023-06-22T00:29:23;15.80;;;9.27;;
31872;SDS011;22407;42.820;23.374;2023-06-22T00:31:48;15.03;;;8.67;;
31872;SDS011;22407;42.820;23.374;2023-06-22T00:34:14;15.17;;;8.40;;
31872;SDS011;22407;42.820;23.374;2023-06-22T00:36:39;15.73;;;8.47;;
31872;SDS011;22407;42.820;23.374;2023-06-22T00:39:05;16.38;;;8.77;;
31872;SDS011;22407;42.820;23.374;2023-06-22T00:41:32;17.33;;;9.50;;
31872;SDS011;22407;42.820;23.374;2023-06-22T00:43:57;15.67;;;8.43;;
31872;SDS011;22407;42.820;23.374;2023-06-22T00:46:23;15.47;;;8.47;;
31872;SDS011;22407;42.820;23.374;2023-06-22T00:48:48;15.77;;;9.00;;
31872;SDS011;22407;42.820;23.374;2023-06-22T00:51:13;16.03;;;8.97;;
31872;SDS011;22407;42.820;23.374;2023-06-22T00:53:39;17.73;;;9.17;;
31872;SDS011;22407;42.820;23.374;2023-06-22T00:56:06;15.88;;;8.75;;
31872;SDS011;22407;42.820;23.374;2023-06-22T00:58:33;16.75;;;9.60;;
31872;SDS011;22407;42.820;23.374;2023-06-22T01:01:00;17.27;;;9.65;;
31872;SDS011;22407;42.820;23.374;2023-06-22T01:03:26;19.10;;;9.70;;
31872;SDS011;22407;42.820;23.374;2023-06-22T01:05:51;17.37;;;9.20;;
31872;SDS011;22407;42.820;23.374;2023-06-22T01:08:36;19.33;;;8.57;;
31872;SDS011;22407;42.820;23.374;2023-06-22T01:13:43;18.75;;;9.65;;
31872;SDS011;22407;42.820;23.374;2023-06-22T01:16:13;17.17;;;9.23;;
31872;SDS011;22407;42.820;23.374;2023-06-22T01:18:40;18.02;;;9.32;;
31872;SDS011;22407;42.820;23.374;2023-06-22T01:21:06;16.73;;;9.37;;
31872;SDS011;22407;42.820;23.374;2023-06-22T01:26:19;16.83;;;8.98;;
31872;SDS011;22407;42.820;23.374;2023-06-22T01:28:50;17.60;;;9.18;;
31872;SDS011;22407;42.820;23.374;2023-06-22T01:31:18;17.15;;;9.10;;
31872;SDS011;22407;42.820;23.374;2023-06-22T01:33:45;18.23;;;9.40;;
31872;SDS011;22407;42.820;23.374;2023-06-22T01:36:11;18.00;;;9.10;;
31872;SDS011;22407;42.820;23.374;2023-06-22T01:38:37;17.08;;;9.55;;
31872;SDS011;22407;42.820;23.374;2023-06-22T01:41:03;17.67;;;9.57;;
31872;SDS011;22407;42.820;23.374;2023-06-22T01:43:29;17.33;;;9.25;;
31872;SDS011;22407;42.820;23.374;2023-06-22T01:45:55;18.33;;;9.40;;
31872;SDS011;22407;42.820;23.374;2023-06-22T01:48:21;19.27;;;9.27;;
31872;SDS011;22407;42.820;23.374;2023-06-22T01:50:47;18.38;;;9.45;;
31872;SDS011;22407;42.820;23.374;2023-06-22T01:53:12;17.70;;;9.80;;
31872;SDS011;22407;42.820;23.374;2023-06-22T01:55:37;17.70;;;9.47;;
31872;SDS011;22407;42.820;23.374;2023-06-22T01:58:03;19.07;;;10.03;;
31872;SDS011;22407;42.820;23.374;2023-06-22T02:00:28;19.02;;;10.10;;
31872;SDS011;22407;42.820;23.374;2023-06-22T02:05:21;17.90;;;10.17;;
31872;SDS011;22407;42.820;23.374;2023-06-22T02:07:58;18.05;;;10.25;;
31872;SDS011;22407;42.820;23.374;2023-06-22T02:10:25;19.75;;;10.45;;
31872;SDS011;22407;42.820;23.374;2023-06-22T02:12:51;19.83;;;10.25;;
31872;SDS011;22407;42.820;23.374;2023-06-22T02:15:17;18.10;;;9.87;;
31872;SDS011;22407;42.820;23.374;2023-06-22T02:17:43;18.00;;;10.32;;
31872;SDS011;22407;42.820;23.374;2023-06-22T02:20:13;18.30;;;10.55;;
31872;SDS011;22407;42.820;23.374;2023-06-22T02:22:38;21.47;;;10.30;;
31872;SDS011;22407;42.820;23.374;2023-06-22T02:25:04;19.10;;;10.13;;
31872;SDS011;22407;42.820;23.374;2023-06-22T02:27:29;18.03;;;9.60;;
31872;SDS011;22407;42.820;23.374;2023-06-22T02:29:54;17.20;;;9.57;;
31872;SDS011;22407;42.820;23.374;2023-06-22T02:32:19;18.00;;;9.93;;
31872;SDS011;22407;42.820;23.374;2023-06-22T02:34:45;18.50;;;9.93;;
31872;SDS011;22407;42.820;23.374;2023-06-22T02:37:13;17.75;;;9.88;;
31872;SDS011;22407;42.820;23.374;2023-06-22T02:39:39;18.52;;;9.70;;
31872;SDS011;22407;42.820;23.374;2023-06-22T02:42:05;19.20;;;10.40;;
31872;SDS011;22407;42.820;23.374;2023-06-22T02:44:30;17.47;;;9.73;;
31872;SDS011;22407;42.820;23.374;2023-06-22T02:46:56;18.75;;;9.93;;
31872;SDS011;22407;42.820;23.374;2023-06-22T02:49:21;19.70;;;10.33;;
31872;SDS011;22407;42.820;23.374;2023-06-22T02:51:47;20.60;;;10.43;;
31872;SDS011;22407;42.820;23.374;2023-06-22T02:54:12;17.70;;;10.57;;
31872;SDS011;22407;42.820;23.374;2023-06-22T02:56:37;20.73;;;9.97;;
31872;SDS011;22407;42.820;23.374;2023-06-22T02:59:05;17.83;;;10.30;;
31872;SDS011;22407;42.820;23.374;2023-06-22T03:01:30;19.83;;;10.15;;
31872;SDS011;22407;42.820;23.374;2023-06-22T03:04:02;17.53;;;9.90;;
31872;SDS011;22407;42.820;23.374;2023-06-22T03:06:28;17.70;;;10.00;;
31872;SDS011;22407;42.820;23.374;2023-06-22T03:08:57;18.73;;;9.60;;
31872;SDS011;22407;42.820;23.374;2023-06-22T03:11:22;19.30;;;9.88;;
31872;SDS011;22407;42.820;23.374;2023-06-22T03:13:48;16.87;;;9.60;;
31872;SDS011;22407;42.820;23.374;2023-06-22T03:16:13;18.07;;;10.40;;
31872;SDS011;22407;42.820;23.374;2023-06-22T03:18:38;18.63;;;9.33;;
31872;SDS011;22407;42.820;23.374;2023-06-22T03:21:03;16.90;;;9.63;;
31872;SDS011;22407;42.820;23.374;2023-06-22T03:23:29;18.03;;;10.13;;
31872;SDS011;22407;42.820;23.374;2023-06-22T03:25:54;17.23;;;9.93;;
31872;SDS011;22407;42.820;23.374;2023-06-22T03:28:20;18.27;;;9.65;;
31872;SDS011;22407;42.820;23.374;2023-06-22T03:30:46;19.87;;;10.20;;
31872;SDS011;22407;42.820;23.374;2023-06-22T03:33:11;18.47;;;9.80;;
31872;SDS011;22407;42.820;23.374;2023-06-22T03:35:36;19.13;;;10.30;;
31872;SDS011;22407;42.820;23.374;2023-06-22T03:38:02;18.17;;;9.80;;
31872;SDS011;22407;42.820;23.374;2023-06-22T03:40:27;18.37;;;9.83;;
31872;SDS011;22407;42.820;23.374;2023-06-22T03:42:53;19.63;;;11.20;;
31872;SDS011;22407;42.820;23.374;2023-06-22T03:45:18;18.77;;;10.80;;
31872;SDS011;22407;42.820;23.374;2023-06-22T03:47:43;18.40;;;10.40;;
31872;SDS011;22407;42.820;23.374;2023-06-22T03:50:08;18.80;;;10.23;;
31872;SDS011;22407;42.820;23.374;2023-06-22T03:52:34;18.50;;;10.50;;
31872;SDS011;22407;42.820;23.374;2023-06-22T03:54:59;17.02;;;9.50;;
31872;SDS011;22407;42.820;23.374;2023-06-22T03:57:24;18.27;;;10.30;;
31872;SDS011;22407;42.820;23.374;2023-06-22T03:59:50;18.17;;;9.87;;
31872;SDS011;22407;42.820;23.374;2023-06-22T04:02:15;19.40;;;11.47;;
31872;SDS011;22407;42.820;23.374;2023-06-22T04:04:40;21.57;;;10.93;;
31872;SDS011;22407;42.820;23.374;2023-06-22T04:07:06;19.40;;;10.23;;
31872;SDS011;22407;42.820;23.374;2023-06-22T04:09:31;18.80;;;10.03;;
31872;SDS011;22407;42.820;23.374;2023-06-22T04:11:56;19.33;;;10.40;;
31872;SDS011;22407;42.820;23.374;2023-06-22T04:14:22;19.07;;;9.83;;
31872;SDS011;22407;42.820;23.374;2023-06-22T04:16:47;18.43;;;10.07;;
31872;SDS011;22407;42.820;23.374;2023-06-22T04:19:12;20.13;;;10.13;;
31872;SDS011;22407;42.820;23.374;2023-06-22T04:21:41;17.02;;;9.88;;
31872;SDS011;22407;42.820;23.374;2023-06-22T04:24:07;17.17;;;9.67;;
31872;SDS011;22407;42.820;23.374;2023-06-22T04:26:32;18.63;;;10.33;;
31872;SDS011;22407;42.820;23.374;2023-06-22T04:29:02;18.25;;;10.05;;
31872;SDS011;22407;42.820;23.374;2023-06-22T04:31:30;18.40;;;10.15;;
31872;SDS011;22407;42.820;23.374;2023-06-22T04:33:57;18.38;;;10.63;;
31872;SDS011;22407;42.820;23.374;2023-06-22T04:36:22;20.00;;;10.50;;
31872;SDS011;22407;42.820;23.374;2023-06-22T04:38:48;19.50;;;10.35;;
31872;SDS011;22407;42.820;23.374;2023-06-22T04:41:17;17.67;;;9.87;;
31872;SDS011;22407;42.820;23.374;2023-06-22T04:43:48;18.73;;;9.98;;
31872;SDS011;22407;42.820;23.374;2023-06-22T04:46:18;20.48;;;10.80;;
31872;SDS011;22407;42.820;23.374;2023-06-22T04:48:44;21.33;;;10.60;;
31872;SDS011;22407;42.820;23.374;2023-06-22T04:51:09;20.93;;;10.60;;
31872;SDS011;22407;42.820;23.374;2023-06-22T04:53:35;19.17;;;10.02;;
31872;SDS011;22407;42.820;23.374;2023-06-22T04:56:00;19.20;;;10.17;;
31872;SDS011;22407;42.820;23.374;2023-06-22T04:58:26;34.27;;;11.07;;
31872;SDS011;22407;42.820;23.374;2023-06-22T05:00:57;20.08;;;10.80;;
31872;SDS011;22407;42.820;23.374;2023-06-22T05:03:24;18.67;;;10.40;;
31872;SDS011;22407;42.820;23.374;2023-06-22T05:05:50;23.60;;;11.82;;
31872;SDS011;22407;42.820;23.374;2023-06-22T05:08:16;24.27;;;11.90;;
31872;SDS011;22407;42.820;23.374;2023-06-22T05:10:41;22.80;;;11.53;;
31872;SDS011;22407;42.820;23.374;2023-06-22T05:13:06;19.40;;;11.07;;
31872;SDS011;22407;42.820;23.374;2023-06-22T05:15:32;19.20;;;11.17;;
31872;SDS011;22407;42.820;23.374;2023-06-22T05:18:01;17.80;;;10.15;;
31872;SDS011;22407;42.820;23.374;2023-06-22T05:20:30;17.70;;;10.53;;
31872;SDS011;22407;42.820;23.374;2023-06-22T05:22:55;18.13;;;10.63;;
31872;SDS011;22407;42.820;23.374;2023-06-22T05:25:20;21.20;;;10.73;;
31872;SDS011;22407;42.820;23.374;2023-06-22T05:27:46;17.40;;;9.80;;
31872;SDS011;22407;42.820;23.374;2023-06-22T05:30:11;20.37;;;10.03;;
31872;SDS011;22407;42.820;23.374;2023-06-22T05:32:39;21.03;;;9.80;;
31872;SDS011;22407;42.820;23.374;2023-06-22T05:35:05;20.25;;;9.88;;
31872;SDS011;22407;42.820;23.374;2023-06-22T05:37:30;17.67;;;9.13;;
31872;SDS011;22407;42.820;23.374;2023-06-22T05:39:55;20.07;;;8.90;;
31872;SDS011;22407;42.820;23.374;2023-06-22T05:42:22;13.63;;;7.40;;
31872;SDS011;22407;42.820;23.374;2023-06-22T05:44:47;15.03;;;8.47;;
31872;SDS011;22407;42.820;23.374;2023-06-22T05:47:13;18.37;;;8.83;;
31872;SDS011;22407;42.820;23.374;2023-06-22T05:49:38;19.80;;;10.33;;
31872;SDS011;22407;42.820;23.374;2023-06-22T05:52:03;14.37;;;8.73;;
31872;SDS011;22407;42.820;23.374;2023-06-22T05:54:29;15.85;;;9.30;;
31872;SDS011;22407;42.820;23.374;2023-06-22T05:56:55;15.57;;;9.07;;
31872;SDS011;22407;42.820;23.374;2023-06-22T05:59:20;15.50;;;8.43;;
31872;SDS011;22407;42.820;23.374;2023-06-22T06:01:45;15.97;;;8.70;;
31872;SDS011;22407;42.820;23.374;2023-06-22T06:04:15;15.20;;;8.80;;
31872;SDS011;22407;42.820;23.374;2023-06-22T06:06:40;15.35;;;7.50;;
31872;SDS011;22407;42.820;23.374;2023-06-22T06:09:05;12.77;;;7.40;;
31872;SDS011;22407;42.820;23.374;2023-06-22T06:11:32;14.90;;;7.70;;
31872;SDS011;22407;42.820;23.374;2023-06-22T06:13:58;15.97;;;8.93;;
31872;SDS011;22407;42.820;23.374;2023-06-22T06:16:23;12.03;;;7.50;;
31872;SDS011;22407;42.820;23.374;2023-06-22T06:18:48;16.10;;;8.30;;
31872;SDS011;22407;42.820;23.374;2023-06-22T06:21:15;14.70;;;8.45;;
31872;SDS011;22407;42.820;23.374;2023-06-22T06:23:40;15.30;;;8.13;;
31872;SDS011;22407;42.820;23.374;2023-06-22T06:26:07;13.05;;;7.70;;
31872;SDS011;22407;42.820;23.374;2023-06-22T06:28:32;17.73;;;8.20;;
31872;SDS011;22407;42.820;23.374;2023-06-22T06:30:58;14.15;;;8.82;;
31872;SDS011;22407;42.820;23.374;2023-06-22T06:33:23;13.00;;;8.57;;
31872;SDS011;22407;42.820;23.374;2023-06-22T06:35:49;14.80;;;8.50;;
31872;SDS011;22407;42.820;23.374;2023-06-22T06:38:14;15.93;;;7.87;;
31872;SDS011;22407;42.820;23.374;2023-06-22T06:40:41;13.23;;;8.00;;
31872;SDS011;22407;42.820;23.374;2023-06-22T06:43:06;14.70;;;8.17;;
31872;SDS011;22407;42.820;23.374;2023-06-22T06:45:31;12.25;;;8.20;;
31872;SDS011;22407;42.820;23.374;2023-06-22T06:47:59;13.80;;;8.33;;
31872;SDS011;22407;42.820;23.374;2023-06-22T06:50:24;13.73;;;8.60;;
31872;SDS011;22407;42.820;23.374;2023-06-22T06:52:50;13.67;;;8.57;;
31872;SDS011;22407;42.820;23.374;2023-06-22T06:55:15;13.97;;;8.60;;
31872;SDS011;22407;42.820;23.374;2023-06-22T06:57:41;13.10;;;8.87;;
31872;SDS011;22407;42.820;23.374;2023-06-22T07:00:15;14.23;;;9.05;;
31872;SDS011;22407;42.820;23.374;2023-06-22T07:02:41;14.20;;;8.85;;
31872;SDS011;22407;42.820;23.374;2023-06-22T07:05:08;15.68;;;8.80;;
31872;SDS011;22407;42.820;23.374;2023-06-22T07:07:33;15.37;;;9.63;;
31872;SDS011;22407;42.820;23.374;2023-06-22T07:09:58;17.73;;;9.13;;
31872;SDS011;22407;42.820;23.374;2023-06-22T07:12:24;16.43;;;9.67;;
31872;SDS011;22407;42.820;23.374;2023-06-22T07:14:49;16.97;;;9.10;;
31872;SDS011;22407;42.820;23.374;2023-06-22T07:17:15;15.67;;;8.83;;
31872;SDS011;22407;42.820;23.374;2023-06-22T07:19:40;14.47;;;8.90;;
31872;SDS011;22407;42.820;23.374;2023-06-22T07:22:07;14.98;;;8.90;;
31872;SDS011;22407;42.820;23.374;2023-06-22T07:24:32;15.47;;;8.80;;
31872;SDS011;22407;42.820;23.374;2023-06-22T07:26:57;15.00;;;8.90;;
31872;SDS011;22407;42.820;23.374;2023-06-22T07:29:24;13.47;;;8.70;;
31872;SDS011;22407;42.820;23.374;2023-06-22T07:31:49;14.57;;;9.05;;
31872;SDS011;22407;42.820;23.374;2023-06-22T07:34:16;13.43;;;8.65;;
31872;SDS011;22407;42.820;23.374;2023-06-22T07:36:41;15.93;;;8.90;;
31872;SDS011;22407;42.820;23.374;2023-06-22T07:39:06;16.27;;;8.73;;
31872;SDS011;22407;42.820;23.374;2023-06-22T07:41:32;14.30;;;8.77;;
31872;SDS011;22407;42.820;23.374;2023-06-22T07:43:57;17.67;;;9.00;;
31872;SDS011;22407;42.820;23.374;2023-06-22T07:46:23;13.70;;;9.20;;
31872;SDS011;22407;42.820;23.374;2023-06-22T07:48:48;16.27;;;8.95;;
31872;SDS011;22407;42.820;23.374;2023-06-22T07:51:13;14.77;;;8.70;;
31872;SDS011;22407;42.820;23.374;2023-06-22T07:53:42;14.03;;;9.33;;
31872;SDS011;22407;42.820;23.374;2023-06-22T07:56:11;15.45;;;8.82;;
31872;SDS011;22407;42.820;23.374;2023-06-22T07:58:37;15.20;;;8.90;;
31872;SDS011;22407;42.820;23.374;2023-06-22T08:01:02;13.93;;;8.00;;
31872;SDS011;22407;42.820;23.374;2023-06-22T08:03:28;15.40;;;8.82;;
31872;SDS011;22407;42.820;23.374;2023-06-22T08:05:53;18.50;;;9.10;;
31872;SDS011;22407;42.820;23.374;2023-06-22T08:08:18;17.03;;;9.50;;
31872;SDS011;22407;42.820;23.374;2023-06-22T08:10:43;14.10;;;8.67;;
31872;SDS011;22407;42.820;23.374;2023-06-22T08:13:09;14.13;;;8.73;;
31872;SDS011;22407;42.820;23.374;2023-06-22T08:15:35;17.85;;;9.10;;
31872;SDS011;22407;42.820;23.374;2023-06-22T08:18:00;16.57;;;9.53;;
31872;SDS011;22407;42.820;23.374;2023-06-22T08:20:26;14.80;;;9.90;;
31872;SDS011;22407;42.820;23.374;2023-06-22T08:22:52;16.10;;;9.85;;
31872;SDS011;22407;42.820;23.374;2023-06-22T08:25:18;15.57;;;10.10;;
31872;SDS011;22407;42.820;23.374;2023-06-22T08:27:47;18.30;;;9.83;;
31872;SDS011;22407;42.820;23.374;2023-06-22T08:30:13;16.00;;;9.93;;
31872;SDS011;22407;42.820;23.374;2023-06-22T08:32:38;19.80;;;11.48;;
31872;SDS011;22407;42.820;23.374;2023-06-22T08:35:04;27.23;;;10.90;;
31872;SDS011;22407;42.820;23.374;2023-06-22T08:37:31;15.80;;;10.18;;
31872;SDS011;22407;42.820;23.374;2023-06-22T08:40:00;17.30;;;10.17;;
31872;SDS011;22407;42.820;23.374;2023-06-22T08:42:33;15.55;;;9.68;;
31872;SDS011;22407;42.820;23.374;2023-06-22T08:44:58;15.43;;;10.33;;
31872;SDS011;22407;42.820;23.374;2023-06-22T08:47:24;18.13;;;10.07;;
31872;SDS011;22407;42.820;23.374;2023-06-22T08:49:49;17.30;;;10.45;;
31872;SDS011;22407;42.820;23.374;2023-06-22T08:52:14;14.63;;;10.17;;
31872;SDS011;22407;42.820;23.374;2023-06-22T08:54:40;15.00;;;10.00;;
31872;SDS011;22407;42.820;23.374;2023-06-22T08:57:05;16.33;;;9.93;;
31872;SDS011;22407;42.820;23.374;2023-06-22T08:59:30;16.27;;;10.50;;
31872;SDS011;22407;42.820;23.374;2023-06-22T09:01:56;15.20;;;10.37;;
31872;SDS011;22407;42.820;23.374;2023-06-22T09:04:21;15.18;;;10.25;;
31872;SDS011;22407;42.820;23.374;2023-06-22T09:06:49;16.77;;;9.90;;
31872;SDS011;22407;42.820;23.374;2023-06-22T09:09:17;25.98;;;9.70;;
31872;SDS011;22407;42.820;23.374;2023-06-22T09:11:43;14.00;;;9.30;;
31872;SDS011;22407;42.820;23.374;2023-06-22T09:14:08;17.47;;;9.90;;
31872;SDS011;22407;42.820;23.374;2023-06-22T09:16:34;15.93;;;9.50;;
31872;SDS011;22407;42.820;23.374;2023-06-22T09:18:59;17.57;;;10.63;;
31872;SDS011;22407;42.820;23.374;2023-06-22T09:21:33;14.77;;;10.07;;
31872;SDS011;22407;42.820;23.374;2023-06-22T09:30:04;16.08;;;10.55;;
31872;SDS011;22407;42.820;23.374;2023-06-22T09:32:48;16.93;;;10.50;;
31872;SDS011;22407;42.820;23.374;2023-06-22T09:35:13;14.37;;;9.83;;
31872;SDS011;22407;42.820;23.374;2023-06-22T09:37:39;15.27;;;10.07;;
31872;SDS011;22407;42.820;23.374;2023-06-22T09:40:05;17.57;;;9.87;;
31872;SDS011;22407;42.820;23.374;2023-06-22T09:42:34;15.32;;;9.88;;
31872;SDS011;22407;42.820;23.374;2023-06-22T09:44:59;15.23;;;10.00;;
31872;SDS011;22407;42.820;23.374;2023-06-22T09:47:24;13.80;;;9.88;;
31872;SDS011;22407;42.820;23.374;2023-06-22T09:49:50;14.77;;;10.13;;
31872;SDS011;22407;42.820;23.374;2023-06-22T09:52:15;13.80;;;10.20;;
31872;SDS011;22407;42.820;23.374;2023-06-22T09:54:40;15.27;;;9.90;;
31872;SDS011;22407;42.820;23.374;2023-06-22T09:57:06;13.60;;;9.87;;
31872;SDS011;22407;42.820;23.374;2023-06-22T09:59:31;14.13;;;9.30;;
31872;SDS011;22407;42.820;23.374;2023-06-22T10:01:56;12.07;;;8.50;;
31872;SDS011;22407;42.820;23.374;2023-06-22T10:04:21;13.07;;;8.13;;
31872;SDS011;22407;42.820;23.374;2023-06-22T10:06:47;12.33;;;8.33;;
31872;SDS011;22407;42.820;23.374;2023-06-22T10:09:12;12.53;;;8.00;;
31872;SDS011;22407;42.820;23.374;2023-06-22T10:11:38;15.20;;;8.60;;
31872;SDS011;22407;42.820;23.374;2023-06-22T10:14:03;12.37;;;9.17;;
31872;SDS011;22407;42.820;23.374;2023-06-22T10:16:32;13.93;;;9.32;;
31872;SDS011;22407;42.820;23.374;2023-06-22T10:18:57;12.60;;;8.60;;
31872;SDS011;22407;42.820;23.374;2023-06-22T10:21:22;15.37;;;9.07;;
31872;SDS011;22407;42.820;23.374;2023-06-22T10:23:48;15.17;;;9.37;;
31872;SDS011;22407;42.820;23.374;2023-06-22T10:26:13;12.70;;;8.73;;
31872;SDS011;22407;42.820;23.374;2023-06-22T10:28:38;12.70;;;8.53;;
31872;SDS011;22407;42.820;23.374;2023-06-22T10:31:03;20.07;;;9.07;;
31872;SDS011;22407;42.820;23.374;2023-06-22T10:33:29;12.43;;;8.70;;
31872;SDS011;22407;42.820;23.374;2023-06-22T10:35:54;13.50;;;8.67;;
31872;SDS011;22407;42.820;23.374;2023-06-22T10:38:20;12.60;;;8.50;;
31872;SDS011;22407;42.820;23.374;2023-06-22T10:40:45;12.63;;;8.83;;
31872;SDS011;22407;42.820;23.374;2023-06-22T10:43:10;12.80;;;9.43;;
31872;SDS011;22407;42.820;23.374;2023-06-22T10:45:35;12.00;;;9.33;;
31872;SDS011;22407;42.820;23.374;2023-06-22T10:48:01;12.43;;;8.80;;
31872;SDS011;22407;42.820;23.374;2023-06-22T10:50:26;18.77;;;9.25;;
31872;SDS011;22407;42.820;23.374;2023-06-22T10:52:51;12.73;;;8.43;;
31872;SDS011;22407;42.820;23.374;2023-06-22T10:55:17;14.50;;;8.80;;
31872;SDS011;22407;42.820;23.374;2023-06-22T10:57:42;13.20;;;8.83;;
31872;SDS011;22407;42.820;23.374;2023-06-22T11:00:09;13.40;;;8.48;;
31872;SDS011;22407;42.820;23.374;2023-06-22T11:02:36;15.60;;;8.77;;
31872;SDS011;22407;42.820;23.374;2023-06-22T11:05:01;13.57;;;8.50;;
31872;SDS011;22407;42.820;23.374;2023-06-22T11:07:26;12.90;;;8.57;;
31872;SDS011;22407;42.820;23.374;2023-06-22T11:09:53;14.75;;;8.88;;
31872;SDS011;22407;42.820;23.374;2023-06-22T11:12:19;12.60;;;8.57;;
31872;SDS011;22407;42.820;23.374;2023-06-22T11:14:44;12.37;;;8.97;;
31872;SDS011;22407;42.820;23.374;2023-06-22T12:26:24;13.07;;;9.10;;
31872;SDS011;22407;42.820;23.374;2023-06-22T12:28:49;13.43;;;9.13;;
31872;SDS011;22407;42.820;23.374;2023-06-22T12:31:14;14.40;;;9.33;;
31872;SDS011;22407;42.820;23.374;2023-06-22T12:33:40;15.10;;;9.50;;
31872;SDS011;22407;42.820;23.374;2023-06-22T12:36:05;15.90;;;9.40;;
31872;SDS011;22407;42.820;23.374;2023-06-22T12:38:30;14.20;;;8.23;;
31872;SDS011;22407;42.820;23.374;2023-06-22T12:40:56;15.87;;;9.17;;
31872;SDS011;22407;42.820;23.374;2023-06-22T12:43:21;13.20;;;7.93;;
31872;SDS011;22407;42.820;23.374;2023-06-22T12:45:46;14.67;;;7.90;;
31872;SDS011;22407;42.820;23.374;2023-06-22T12:48:11;13.20;;;7.13;;
31872;SDS011;22407;42.820;23.374;2023-06-22T12:50:38;12.38;;;7.28;;
31872;SDS011;22407;42.820;23.374;2023-06-22T12:53:03;15.40;;;7.37;;
31872;SDS011;22407;42.820;23.374;2023-06-22T12:55:29;13.93;;;7.00;;
31872;SDS011;22407;42.820;23.374;2023-06-22T12:57:54;12.53;;;6.57;;
31872;SDS011;22407;42.820;23.374;2023-06-22T13:00:20;13.83;;;6.63;;
31872;SDS011;22407;42.820;23.374;2023-06-22T13:02:45;13.67;;;6.43;;
31872;SDS011;22407;42.820;23.374;2023-06-22T13:05:10;12.60;;;6.63;;
31872;SDS011;22407;42.820;23.374;2023-06-22T13:07:36;12.77;;;6.27;;
31872;SDS011;22407;42.820;23.374;2023-06-22T13:10:01;12.50;;;6.13;;
31872;SDS011;22407;42.820;23.374;2023-06-22T13:12:26;13.77;;;6.30;;
31872;SDS011;22407;42.820;23.374;2023-06-22T13:14:52;13.73;;;6.00;;
31872;SDS011;22407;42.820;23.374;2023-06-22T13:17:17;13.80;;;6.10;;
31872;SDS011;22407;42.820;23.374;2023-06-22T13:19:43;11.37;;;5.83;;
31872;SDS011;22407;42.820;23.374;2023-06-22T13:24:53;12.65;;;6.25;;
31872;SDS011;22407;42.820;23.374;2023-06-22T13:27:18;13.97;;;6.40;;
31872;SDS011;22407;42.820;23.374;2023-06-22T13:29:43;15.10;;;6.90;;
31872;SDS011;22407;42.820;23.374;2023-06-22T13:32:09;12.40;;;6.73;;
31872;SDS011;22407;42.820;23.374;2023-06-22T13:34:34;12.37;;;6.53;;
31872;SDS011;22407;42.820;23.374;2023-06-22T13:36:59;13.17;;;6.50;;
31872;SDS011;22407;42.820;23.374;2023-06-22T13:39:24;13.10;;;6.93;;
31872;SDS011;22407;42.820;23.374;2023-06-22T13:41:50;12.07;;;6.23;;
31872;SDS011;22407;42.820;23.374;2023-06-22T13:44:15;11.07;;;6.50;;
31872;SDS011;22407;42.820;23.374;2023-06-22T13:46:40;11.03;;;6.23;;
31872;SDS011;22407;42.820;23.374;2023-06-22T13:49:05;13.00;;;6.20;;
31872;SDS011;22407;42.820;23.374;2023-06-22T13:51:31;12.60;;;6.20;;
31872;SDS011;22407;42.820;23.374;2023-06-22T13:53:56;9.97;;;5.80;;
31872;SDS011;22407;42.820;23.374;2023-06-22T13:56:21;11.93;;;5.90;;
31872;SDS011;22407;42.820;23.374;2023-06-22T13:58:46;14.70;;;6.07;;
31872;SDS011;22407;42.820;23.374;2023-06-22T14:01:12;15.23;;;6.03;;
31872;SDS011;22407;42.820;23.374;2023-06-22T14:03:37;15.33;;;6.43;;
31872;SDS011;22407;42.820;23.374;2023-06-22T14:06:02;11.10;;;6.53;;
31872;SDS011;22407;42.820;23.374;2023-06-22T14:08:29;11.70;;;6.63;;
31872;SDS011;22407;42.820;23.374;2023-06-22T14:10:54;12.57;;;6.40;;
31872;SDS011;22407;42.820;23.374;2023-06-22T14:13:19;12.00;;;6.23;;
31872;SDS011;22407;42.820;23.374;2023-06-22T14:15:45;10.43;;;6.32;;
31872;SDS011;22407;42.820;23.374;2023-06-22T14:18:13;15.90;;;7.03;;
31872;SDS011;22407;42.820;23.374;2023-06-22T14:20:39;13.37;;;6.80;;
31872;SDS011;22407;42.820;23.374;2023-06-22T14:23:05;12.05;;;6.55;;
31872;SDS011;22407;42.820;23.374;2023-06-22T14:25:30;14.10;;;7.20;;
31872;SDS011;22407;42.820;23.374;2023-06-22T14:27:55;12.57;;;6.90;;
31872;SDS011;22407;42.820;23.374;2023-06-22T14:30:21;14.15;;;6.90;;
31872;SDS011;22407;42.820;23.374;2023-06-22T14:32:46;12.70;;;7.10;;
31872;SDS011;22407;42.820;23.374;2023-06-22T14:35:11;13.93;;;7.40;;
31872;SDS011;22407;42.820;23.374;2023-06-22T14:37:37;11.47;;;6.70;;
31872;SDS011;22407;42.820;23.374;2023-06-22T14:40:02;13.10;;;7.20;;
31872;SDS011;22407;42.820;23.374;2023-06-22T14:42:27;13.27;;;7.77;;
31872;SDS011;22407;42.820;23.374;2023-06-22T14:44:55;16.08;;;7.60;;
31872;SDS011;22407;42.820;23.374;2023-06-22T14:47:20;13.33;;;7.10;;
31872;SDS011;22407;42.820;23.374;2023-06-22T14:49:47;14.93;;;7.43;;
31872;SDS011;22407;42.820;23.374;2023-06-22T14:52:13;17.03;;;7.33;;
31872;SDS011;22407;42.820;23.374;2023-06-22T14:54:39;23.50;;;7.60;;
31872;SDS011;22407;42.820;23.374;2023-06-22T14:57:04;15.37;;;8.17;;
31872;SDS011;22407;42.820;23.374;2023-06-22T14:59:29;12.70;;;7.10;;
31872;SDS011;22407;42.820;23.374;2023-06-22T15:01:54;13.87;;;8.17;;
31872;SDS011;22407;42.820;23.374;2023-06-22T15:04:20;13.73;;;7.45;;
31872;SDS011;22407;42.820;23.374;2023-06-22T15:06:45;14.30;;;7.70;;
31872;SDS011;22407;42.820;23.374;2023-06-22T15:09:10;14.07;;;6.70;;
31872;SDS011;22407;42.820;23.374;2023-06-22T15:11:36;14.87;;;7.70;;
31872;SDS011;22407;42.820;23.374;2023-06-22T15:14:01;11.90;;;7.30;;
31872;SDS011;22407;42.820;23.374;2023-06-22T15:16:26;13.10;;;6.60;;
31872;SDS011;22407;42.820;23.374;2023-06-22T15:18:51;13.43;;;6.97;;
31872;SDS011;22407;42.820;23.374;2023-06-22T15:21:17;19.13;;;7.17;;
31872;SDS011;22407;42.820;23.374;2023-06-22T15:23:42;17.27;;;7.70;;
31872;SDS011;22407;42.820;23.374;2023-06-22T15:26:07;15.10;;;7.90;;
31872;SDS011;22407;42.820;23.374;2023-06-22T15:28:33;12.67;;;7.10;;
31872;SDS011;22407;42.820;23.374;2023-06-22T15:31:00;15.63;;;7.50;;
31872;SDS011;22407;42.820;23.374;2023-06-22T15:33:25;15.83;;;7.80;;
31872;SDS011;22407;42.820;23.374;2023-06-22T15:35:50;14.30;;;7.80;;